Elkins Park, Pennsylvania
Current Conditions -  °F | °C
As of 4:54 PM on Monday 24 Nov 2014 (Local Time) from KPNE Reporting Station
NA  
Wind Chill: 21°   Ceiling: NA
Heat Index: 21°   Visibility: 10mi
Dew Point: 12°   Wind: 16mph
Humidity: 57%   Direction: 210°SSW
Pressure: 29.67"   Gusts: 25mph
Location:  40.08°N, 75.13°W
Report Text: KPNE 242154Z AUTO 21014G22KT 10SM 21/12 A2967 RMK AO2 PK WND 22027/2102 SLP048 T02060117 TSNO $
Loading
Personal Weather Stations






























Interactive Weather Map New forecast layout! Learn more

10-Day Weather Forecast

Advertisements
Track Severe Weather on mobile